Time;durP1;ratioP1;P1;durP2;ratioP2;P2;SDS_P1;SDS_P2;PMS_P1;PMS_P2;Temp;Humidity;BMP_temperature;BMP_pressure;BME280_temperature;BME280_humidity;BME280_pressure;Samples;Min_cycle;Max_cycle;Signal;HPM_P1;HPM_P2
2022/07/18 00:00:33;;;;;;;3.88;3.25;;;29.10;96.70;;;;;;4868907;29;20522;-79
2022/07/18 00:03:02;;;;;;;4.97;2.80;;;29.10;96.70;;;;;;4871421;29;20057;-79
2022/07/18 00:05:29;;;;;;;4.03;3.00;;;29.10;96.70;;;;;;4869320;29;20971;-80
2022/07/18 00:07:57;;;;;;;3.03;2.75;;;29.10;96.70;;;;;;4870302;29;20397;-80
2022/07/18 00:10:26;;;;;;;3.75;3.35;;;28.90;96.70;;;;;;4870879;29;20045;-80
2022/07/18 00:12:54;;;;;;;4.25;3.10;;;28.80;96.70;;;;;;4869485;29;20057;-80
2022/07/18 00:15:22;;;;;;;4.95;2.72;;;28.70;96.70;;;;;;4869895;29;20045;-80
2022/07/18 00:17:51;;;;;;;4.80;2.88;;;28.80;96.70;;;;;;4871644;29;20056;-79
2022/07/18 00:20:19;;;;;;;3.05;2.83;;;28.70;96.70;;;;;;4870095;29;20037;-80
2022/07/18 00:22:47;;;;;;;3.13;2.92;;;28.70;96.70;;;;;;4872886;29;20393;-80
2022/07/18 00:25:15;;;;;;;3.92;2.90;;;28.70;96.70;;;;;;4869768;29;20068;-79
2022/07/18 00:27:43;;;;;;;4.22;3.25;;;28.80;96.70;;;;;;4870562;29;20087;-78
2022/07/18 00:30:12;;;;;;;4.53;3.25;;;28.80;96.70;;;;;;4868404;29;20148;-81
2022/07/18 00:32:40;;;;;;;6.55;3.28;;;28.60;96.70;;;;;;4869660;29;20052;-80
2022/07/18 00:35:10;;;;;;;4.72;3.30;;;28.60;96.70;;;;;;4870057;29;20048;-77
2022/07/18 00:37:38;;;;;;;3.85;3.35;;;28.60;96.70;;;;;;4865940;29;20049;-77
2022/07/18 00:40:07;;;;;;;3.17;2.88;;;28.60;96.70;;;;;;4868993;29;20101;-79
2022/07/18 00:42:35;;;;;;;5.18;3.25;;;28.40;96.70;;;;;;4853456;29;20057;-80
2022/07/18 00:45:05;;;;;;;2.90;2.60;;;28.50;96.70;;;;;;4870111;29;20077;-80
2022/07/18 00:47:33;;;;;;;6.85;3.22;;;28.60;96.70;;;;;;4884794;29;20470;-79
2022/07/18 00:50:03;;;;;;;3.50;3.20;;;28.40;96.70;;;;;;4870430;29;20072;-80
2022/07/18 00:52:33;;;;;;;5.15;3.28;;;28.50;96.70;;;;;;4871059;29;20048;-80
2022/07/18 00:55:01;;;;;;;9.90;3.17;;;28.40;96.70;;;;;;4871060;29;20139;-80
2022/07/18 00:57:36;;;;;;;3.28;2.97;;;28.40;96.70;;;;;;4873239;29;20519;-79
2022/07/18 01:02:52;;;;;;;3.00;2.70;;;28.40;96.70;;;;;;4871207;29;20052;-79
2022/07/18 01:05:21;;;;;;;7.20;3.95;;;28.40;96.70;;;;;;4887560;29;20532;-79
2022/07/18 01:07:51;;;;;;;2.92;2.72;;;28.40;96.70;;;;;;4872018;29;20060;-78
2022/07/18 01:10:19;;;;;;;5.38;2.90;;;28.30;96.70;;;;;;4874093;29;20053;-79
2022/07/18 01:12:47;;;;;;;5.75;3.15;;;28.30;96.70;;;;;;4855912;29;20480;-79
2022/07/18 01:15:15;;;;;;;3.25;2.95;;;28.30;96.70;;;;;;4872206;29;20061;-79
2022/07/18 01:17:43;;;;;;;3.55;3.25;;;28.20;96.70;;;;;;4871648;29;20044;-80
2022/07/18 01:20:14;;;;;;;4.53;3.13;;;28.10;96.70;;;;;;4872239;29;20527;-78
2022/07/18 01:22:45;;;;;;;4.22;3.05;;;28.10;96.70;;;;;;4871033;29;20059;-78
2022/07/18 01:25:16;;;;;;;4.40;2.92;;;28.10;96.70;;;;;;4859318;29;20583;-78
2022/07/18 01:27:45;;;;;;;4.10;2.90;;;27.90;96.70;;;;;;4872273;29;20566;-77
2022/07/18 01:30:14;;;;;;;4.43;2.65;;;27.90;96.70;;;;;;4875120;29;20057;-78
2022/07/18 01:32:43;;;;;;;4.38;3.10;;;28.00;96.70;;;;;;4873657;29;20041;-77
2022/07/18 01:35:11;;;;;;;3.47;2.83;;;28.10;96.70;;;;;;4871417;29;20344;-77
2022/07/18 01:37:40;;;;;;;3.95;3.13;;;28.10;96.70;;;;;;4874310;29;20044;-77
2022/07/18 01:40:11;;;;;;;3.05;2.80;;;28.00;96.70;;;;;;4873766;29;20075;-77
2022/07/18 01:42:40;;;;;;;3.10;2.75;;;28.00;96.70;;;;;;4872095;29;20041;-77
2022/07/18 01:45:08;;;;;;;6.57;3.30;;;28.00;96.70;;;;;;4871771;29;20555;-77
2022/07/18 01:47:37;;;;;;;3.45;2.90;;;28.00;96.70;;;;;;4872401;29;20947;-77
2022/07/18 01:50:07;;;;;;;3.60;2.97;;;27.90;96.70;;;;;;4872468;29;20073;-77
2022/07/18 01:52:36;;;;;;;4.25;2.83;;;27.80;96.70;;;;;;4869245;29;20679;-77
2022/07/18 01:55:06;;;;;;;3.40;3.08;;;27.90;96.70;;;;;;4873414;29;20128;-77
2022/07/18 01:57:37;;;;;;;3.38;3.08;;;27.80;96.70;;;;;;4871661;29;20051;-76
2022/07/18 02:00:07;;;;;;;4.85;3.33;;;27.90;96.70;;;;;;4887930;29;20792;-77
2022/07/18 02:02:36;;;;;;;5.57;3.30;;;27.80;96.70;;;;;;4872330;29;20049;-77
2022/07/18 02:05:06;;;;;;;4.75;3.33;;;27.80;96.70;;;;;;4889053;29;20658;-77
2022/07/18 02:07:36;;;;;;;4.07;3.40;;;27.70;96.70;;;;;;4872602;29;20059;-76
2022/07/18 02:10:06;;;;;;;3.53;3.08;;;27.80;96.70;;;;;;4886482;29;20059;-77
2022/07/18 02:12:36;;;;;;;3.70;3.30;;;27.70;96.70;;;;;;4872142;29;20041;-78
2022/07/18 02:15:07;;;;;;;4.05;3.22;;;27.60;96.70;;;;;;4870442;29;20124;-77
2022/07/18 02:17:35;;;;;;;4.35;3.45;;;27.50;96.70;;;;;;4871906;29;20045;-77
2022/07/18 02:20:05;;;;;;;6.28;3.50;;;27.50;96.70;;;;;;4855417;29;20052;-76
2022/07/18 02:22:34;;;;;;;4.05;3.72;;;27.50;96.70;;;;;;4883761;29;20053;-77
2022/07/18 02:25:02;;;;;;;4.93;3.40;;;27.50;96.70;;;;;;4854458;29;20056;-76
2022/07/18 02:27:30;;;;;;;3.40;3.10;;;27.40;96.70;;;;;;4872839;29;20049;-77
2022/07/18 02:30:00;;;;;;;5.05;3.88;;;27.50;96.70;;;;;;4870045;29;20104;-77
2022/07/18 02:32:28;;;;;;;4.93;3.25;;;27.50;96.70;;;;;;4874344;29;20053;-76
2022/07/18 02:34:57;;;;;;;4.03;3.17;;;27.40;96.70;;;;;;4870939;29;20133;-77
2022/07/18 02:37:25;;;;;;;3.80;3.50;;;27.30;96.70;;;;;;4874056;29;20484;-76
2022/07/18 02:39:53;;;;;;;6.10;3.42;;;27.30;96.70;;;;;;4869737;29;20449;-76
2022/07/18 02:42:22;;;;;;;4.13;3.25;;;27.30;96.70;;;;;;4872126;29;20068;-77
2022/07/18 02:44:50;;;;;;;6.07;3.15;;;27.30;96.70;;;;;;4870173;29;20622;-77
2022/07/18 02:47:20;;;;;;;4.32;3.20;;;27.40;96.70;;;;;;4872416;29;20153;-78
2022/07/18 02:49:48;;;;;;;4.18;3.75;;;27.40;96.70;;;;;;4870687;29;20056;-77
2022/07/18 02:52:17;;;;;;;6.05;3.70;;;27.40;96.70;;;;;;4870554;29;20496;-77
2022/07/18 02:54:45;;;;;;;4.28;3.70;;;27.40;96.70;;;;;;4871409;29;20064;-77
2022/07/18 02:57:13;;;;;;;5.65;3.80;;;27.30;96.70;;;;;;4870007;29;20072;-77
2022/07/18 02:59:42;;;;;;;3.97;3.58;;;27.20;96.70;;;;;;4869717;29;20049;-78
2022/07/18 03:02:10;;;;;;;4.13;3.33;;;27.20;96.70;;;;;;4870883;29;20041;-78
2022/07/18 03:04:40;;;;;;;5.53;3.75;;;27.10;96.70;;;;;;4871240;29;20049;-78
2022/07/18 03:07:08;;;;;;;4.38;3.60;;;27.00;96.70;;;;;;4886031;29;20139;-78
2022/07/18 03:09:37;;;;;;;6.55;3.28;;;27.00;96.70;;;;;;4854047;29;20056;-78
2022/07/18 03:12:05;;;;;;;4.13;3.72;;;27.00;96.70;;;;;;4866599;29;20049;-78
2022/07/18 03:14:34;;;;;;;3.53;3.20;;;26.90;96.70;;;;;;4872007;29;20135;-77
2022/07/18 03:17:02;;;;;;;4.95;3.65;;;26.90;96.70;;;;;;4872236;29;20041;-78
2022/07/18 03:19:30;;;;;;;4.10;3.70;;;26.90;96.70;;;;;;4867833;29;20057;-78
2022/07/18 03:22:00;;;;;;;5.60;3.45;;;26.80;96.70;;;;;;4869987;29;20045;-78
2022/07/18 03:24:29;;;;;;;4.43;3.70;;;26.80;96.70;;;;;;4872500;29;20053;-78
2022/07/18 03:26:57;;;;;;;5.30;3.83;;;26.70;96.70;;;;;;4854679;29;20139;-77
2022/07/18 03:29:26;;;;;;;4.43;3.75;;;26.60;96.70;;;;;;4867395;29;20146;-78
2022/07/18 03:31:54;;;;;;;4.15;3.78;;;26.50;96.70;;;;;;4854440;29;20052;-77
2022/07/18 03:34:22;;;;;;;6.57;3.95;;;26.50;96.70;;;;;;4887430;29;20048;-78
2022/07/18 03:36:51;;;;;;;4.35;3.95;;;26.40;96.70;;;;;;4853732;29;20051;-78
2022/07/18 03:39:21;;;;;;;6.10;4.30;;;26.40;96.70;;;;;;4883708;29;20072;-78
2022/07/18 03:41:51;;;;;;;4.80;3.95;;;26.40;96.70;;;;;;4870855;29;20101;-77
2022/07/18 03:44:19;;;;;;;5.13;3.30;;;26.40;96.70;;;;;;4873609;29;20135;-78
2022/07/18 03:46:48;;;;;;;4.18;3.80;;;26.50;96.70;;;;;;4868858;29;20491;-78
2022/07/18 03:49:17;;;;;;;6.47;3.80;;;26.50;96.70;;;;;;4869760;29;20064;-78
2022/07/18 03:51:45;;;;;;;4.63;4.05;;;26.60;96.70;;;;;;4871120;29;20045;-78
2022/07/18 03:54:14;;;;;;;4.55;3.75;;;26.60;96.70;;;;;;4885792;29;20056;-78
2022/07/18 03:56:43;;;;;;;5.07;4.57;;;26.60;96.70;;;;;;4884013;29;20045;-78
2022/07/18 03:59:12;;;;;;;5.40;4.30;;;26.60;96.70;;;;;;4870481;29;20048;-78
2022/07/18 04:01:40;;;;;;;5.03;4.00;;;26.60;96.70;;;;;;4868651;29;20396;-78
2022/07/18 04:04:09;;;;;;;4.88;4.28;;;26.50;96.70;;;;;;4884402;29;20053;-78
2022/07/18 04:06:37;;;;;;;5.70;4.20;;;26.60;96.70;;;;;;4864275;29;20386;-78
2022/07/18 04:09:06;;;;;;;5.97;3.90;;;26.60;96.70;;;;;;4869363;29;20530;-77
2022/07/18 04:11:34;;;;;;;5.28;4.07;;;26.60;96.70;;;;;;4868737;29;20052;-77
2022/07/18 04:14:04;;;;;;;4.43;4.03;;;26.50;96.70;;;;;;4869127;29;20055;-77
2022/07/18 04:16:32;;;;;;;6.53;3.95;;;26.50;96.70;;;;;;4864568;29;20541;-77
2022/07/18 04:19:01;;;;;;;4.32;3.92;;;26.50;96.70;;;;;;4854344;29;20139;-78
2022/07/18 04:21:29;;;;;;;5.38;4.38;;;26.50;96.70;;;;;;4868659;29;20629;-78
2022/07/18 04:23:58;;;;;;;4.95;4.10;;;26.60;96.70;;;;;;4870647;29;20068;-77
2022/07/18 04:26:26;;;;;;;7.63;4.57;;;26.60;96.70;;;;;;4868045;29;20171;-78
2022/07/18 04:28:55;;;;;;;4.63;3.72;;;26.60;96.70;;;;;;4870317;29;20057;-77
2022/07/18 04:31:25;;;;;;;4.60;4.18;;;26.60;96.70;;;;;;4854937;29;20045;-78
2022/07/18 04:33:53;;;;;;;6.55;4.43;;;26.60;96.70;;;;;;4873170;29;20527;-78
2022/07/18 04:36:22;;;;;;;4.53;3.67;;;26.60;96.70;;;;;;4871964;29;20053;-78
2022/07/18 04:38:50;;;;;;;4.65;4.10;;;26.70;96.70;;;;;;4857078;29;20045;-77
2022/07/18 04:41:22;;;;;;;6.25;4.00;;;26.70;96.70;;;;;;4869733;29;20055;-78
2022/07/18 04:43:51;;;;;;;4.88;3.78;;;26.80;96.70;;;;;;4874254;29;20044;-78
2022/07/18 04:46:20;;;;;;;9.02;4.85;;;26.80;96.70;;;;;;4873701;29;20136;-78
2022/07/18 04:48:50;;;;;;;6.13;4.60;;;26.80;96.70;;;;;;4872428;29;20504;-78
2022/07/18 04:51:18;;;;;;;10.10;4.80;;;26.70;96.70;;;;;;4870088;29;20053;-77
2022/07/18 04:53:46;;;;;;;6.95;4.45;;;26.80;96.70;;;;;;4873586;29;20595;-78
2022/07/18 04:56:15;;;;;;;6.80;5.15;;;26.90;96.70;;;;;;4873167;29;20084;-78
2022/07/18 04:58:43;;;;;;;5.07;3.75;;;26.90;96.70;;;;;;4871606;29;20055;-78
2022/07/18 05:01:12;;;;;;;7.75;4.45;;;27.00;96.70;;;;;;4874091;29;20094;-77
2022/07/18 05:03:40;;;;;;;6.15;4.57;;;27.10;96.70;;;;;;4874127;29;20048;-78
2022/07/18 05:06:10;;;;;;;7.47;4.72;;;27.10;96.70;;;;;;4873202;29;20045;-78
2022/07/18 05:08:39;;;;;;;5.22;4.72;;;27.20;96.70;;;;;;4871737;29;20113;-78
2022/07/18 05:11:08;;;;;;;6.15;4.60;;;27.20;96.70;;;;;;4873037;29;20060;-78
2022/07/18 05:13:36;;;;;;;7.35;5.22;;;27.20;96.70;;;;;;4872054;29;20323;-78
2022/07/18 05:16:05;;;;;;;5.55;4.97;;;27.20;96.70;;;;;;4869432;29;20081;-77
2022/07/18 05:18:33;;;;;;;9.85;5.03;;;27.20;96.70;;;;;;4870564;29;20152;-77
2022/07/18 05:21:02;;;;;;;6.53;4.85;;;27.20;96.70;;;;;;4886393;29;20072;-78
2022/07/18 05:23:32;;;;;;;9.25;4.95;;;27.30;96.70;;;;;;4874136;29;20044;-78
2022/07/18 05:26:00;;;;;;;7.40;4.63;;;27.20;96.70;;;;;;4860060;29;20077;-78
2022/07/18 05:28:34;;;;;;;5.85;5.07;;;27.20;96.70;;;;;;4869571;29;20542;-77
2022/07/18 05:31:02;;;;;;;11.55;5.35;;;27.30;96.70;;;;;;4856822;29;20599;-78
2022/07/18 05:33:31;;;;;;;5.90;4.82;;;27.30;96.70;;;;;;4855687;29;20077;-77
2022/07/18 05:36:04;;;;;;;7.40;5.07;;;27.30;96.70;;;;;;4888103;29;20053;-78
2022/07/18 05:38:34;;;;;;;7.07;4.68;;;27.30;96.70;;;;;;4870771;29;20045;-78
2022/07/18 05:41:03;;;;;;;7.07;5.45;;;27.30;96.70;;;;;;4872537;29;20104;-78
2022/07/18 05:43:31;;;;;;;5.65;5.05;;;27.30;96.70;;;;;;4870554;29;20048;-78
2022/07/18 05:46:00;;;;;;;9.43;4.70;;;27.30;96.70;;;;;;4888422;29;20111;-77
2022/07/18 05:48:29;;;;;;;6.53;4.70;;;27.30;96.70;;;;;;4855340;29;20185;-78
2022/07/18 05:50:57;;;;;;;8.00;4.97;;;27.40;96.70;;;;;;4872354;29;20101;-77
2022/07/18 05:53:26;;;;;;;7.93;4.45;;;27.40;96.70;;;;;;4871610;29;20188;-77
2022/07/18 05:55:56;;;;;;;7.47;5.03;;;27.40;96.70;;;;;;4871770;29;20052;-78
2022/07/18 05:58:24;;;;;;;7.57;5.18;;;27.50;96.70;;;;;;4886895;29;20261;-77
2022/07/18 06:00:53;;;;;;;6.90;5.15;;;27.60;96.70;;;;;;4856623;29;20511;-78
2022/07/18 06:03:22;;;;;;;4.80;4.30;;;27.70;96.70;;;;;;4871746;29;20045;-78
2022/07/18 06:05:50;;;;;;;5.60;4.35;;;27.80;96.70;;;;;;4870878;29;20056;-77
2022/07/18 06:08:27;;;;;;;7.07;4.57;;;27.80;96.70;;;;;;4872173;29;20044;-78
2022/07/18 06:10:57;;;;;;;5.90;4.30;;;27.80;96.70;;;;;;4870346;29;20056;-77
2022/07/18 06:13:25;;;;;;;10.45;5.03;;;27.80;96.70;;;;;;4874776;29;20045;-78
2022/07/18 06:15:53;;;;;;;8.15;5.03;;;27.90;96.70;;;;;;4872145;29;20049;-78
2022/07/18 06:18:22;;;;;;;8.25;5.30;;;27.90;96.70;;;;;;4872224;29;20123;-78
2022/07/18 06:20:51;;;;;;;6.60;4.60;;;28.00;96.70;;;;;;4870649;29;20045;-78
2022/07/18 06:23:20;;;;;;;5.50;4.72;;;28.10;96.70;;;;;;4872669;29;20144;-78
2022/07/18 06:25:48;;;;;;;8.73;4.82;;;28.10;96.70;;;;;;4886958;29;20109;-77
2022/07/18 06:28:18;;;;;;;7.47;4.95;;;28.10;96.70;;;;;;4873140;29;20135;-77
2022/07/18 06:30:46;;;;;;;6.45;4.55;;;28.10;96.70;;;;;;4872963;29;20088;-78
2022/07/18 06:33:15;;;;;;;6.18;4.30;;;28.10;96.70;;;;;;4871712;29;20053;-78
2022/07/18 06:35:43;;;;;;;10.23;4.40;;;28.20;96.70;;;;;;4872194;29;20069;-78
2022/07/18 06:38:12;;;;;;;5.18;4.68;;;28.40;96.70;;;;;;4871173;29;20081;-76
2022/07/18 06:40:40;;;;;;;7.97;4.20;;;28.40;96.70;;;;;;4868924;29;20041;-78
2022/07/18 06:43:09;;;;;;;8.63;5.15;;;28.50;96.70;;;;;;4855240;29;20053;-78
2022/07/18 06:45:39;;;;;;;8.25;4.97;;;28.60;96.70;;;;;;4872274;29;20501;-78
2022/07/18 06:48:09;;;;;;;6.82;4.78;;;28.60;96.70;;;;;;4873244;29;20472;-77
2022/07/18 06:50:38;;;;;;;7.75;4.65;;;28.70;96.70;;;;;;4871209;29;20049;-78
2022/07/18 06:53:07;;;;;;;6.53;4.30;;;28.80;96.70;;;;;;4886044;29;20508;-79
2022/07/18 06:55:35;;;;;;;7.55;4.90;;;28.80;96.70;;;;;;4870541;29;20045;-79
2022/07/18 06:58:03;;;;;;;9.35;4.43;;;28.90;96.70;;;;;;4869096;29;20069;-79
2022/07/18 07:00:32;;;;;;;6.13;4.32;;;28.90;96.70;;;;;;4872071;29;20496;-78
2022/07/18 07:03:02;;;;;;;6.32;4.15;;;29.00;96.70;;;;;;4857030;29;20101;-83
2022/07/18 07:05:32;;;;;;;5.45;4.53;;;29.10;96.70;;;;;;4871408;29;20037;-82
2022/07/18 07:08:00;;;;;;;4.38;3.90;;;29.20;96.70;;;;;;4873317;29;20072;-81
2022/07/18 07:10:29;;;;;;;6.63;4.18;;;29.20;96.70;;;;;;4870779;29;20049;-81
2022/07/18 07:12:57;;;;;;;5.43;3.63;;;29.30;96.70;;;;;;4871845;29;20120;-82
2022/07/18 07:15:26;;;;;;;6.55;4.00;;;29.40;96.70;;;;;;4872744;29;20057;-80
2022/07/18 07:17:54;;;;;;;5.25;3.78;;;29.50;96.70;;;;;;4870724;29;20053;-80
2022/07/18 07:20:24;;;;;;;5.93;3.78;;;29.60;96.70;;;;;;4870902;29;20132;-78
2022/07/18 07:22:54;;;;;;;4.53;3.40;;;29.70;96.70;;;;;;4869857;29;20045;-80
2022/07/18 07:25:24;;;;;;;6.10;3.90;;;29.80;96.70;;;;;;4870001;29;20202;-79
2022/07/18 07:27:53;;;;;;;6.00;4.13;;;29.90;96.70;;;;;;4868682;29;20068;-79
2022/07/18 07:30:22;;;;;;;5.32;4.18;;;29.90;96.70;;;;;;4870493;29;20425;-79
2022/07/18 07:32:51;;;;;;;5.30;3.75;;;30.00;96.70;;;;;;4869467;29;20052;-79
2022/07/18 07:35:20;;;;;;;6.22;4.03;;;30.10;96.70;;;;;;4872122;29;20045;-80
2022/07/18 07:37:52;;;;;;;7.70;4.20;;;30.10;96.70;;;;;;4870776;29;20120;-80
2022/07/18 07:40:22;;;;;;;8.00;3.80;;;30.20;96.70;;;;;;4865069;29;20049;-79
2022/07/18 07:42:51;;;;;;;5.13;3.70;;;30.20;96.70;;;;;;4879910;29;20465;-78
2022/07/18 07:45:20;;;;;;;6.20;3.80;;;30.20;96.70;;;;;;4871308;29;20121;-79
2022/07/18 07:47:48;;;;;;;4.10;3.72;;;30.20;96.70;;;;;;4871253;29;20047;-80
2022/07/18 07:50:16;;;;;;;5.93;3.90;;;30.30;96.70;;;;;;4869839;29;20048;-80
2022/07/18 07:52:45;;;;;;;4.00;3.60;;;30.40;96.70;;;;;;4871230;29;20040;-81
2022/07/18 07:55:15;;;;;;;5.30;3.33;;;30.50;96.70;;;;;;4870513;29;20161;-82
2022/07/18 07:57:43;;;;;;;5.32;3.30;;;30.60;96.70;;;;;;4868924;29;20136;-79
2022/07/18 08:00:12;;;;;;;4.30;3.92;;;30.70;96.70;;;;;;4872030;29;20049;-80
2022/07/18 08:02:57;;;;;;;4.40;3.83;;;30.80;96.70;;;;;;4870739;29;20045;-81
2022/07/18 08:05:29;;;;;;;4.07;3.10;;;30.80;96.70;;;;;;4883451;29;20085;-81
2022/07/18 08:07:58;;;;;;;6.32;3.47;;;30.80;96.70;;;;;;4869926;29;20201;-80
2022/07/18 08:10:33;;;;;;;3.72;3.38;;;30.80;96.70;;;;;;4867286;29;20045;-81
2022/07/18 08:13:10;;;;;;;6.97;3.55;;;30.90;96.70;;;;;;4871546;29;20057;-80
2022/07/18 08:15:39;;;;;;;4.63;3.42;;;31.10;96.70;;;;;;4871328;29;20135;-78
2022/07/18 08:18:08;;;;;;;5.32;3.30;;;31.20;96.70;;;;;;4854692;29;20069;-79
2022/07/18 08:20:42;;;;;;;5.38;3.28;;;31.30;96.70;;;;;;4870339;29;20457;-79
2022/07/18 08:23:11;;;;;;;4.15;3.33;;;31.50;96.70;;;;;;4868989;29;20052;-79
2022/07/18 08:25:43;;;;;;;3.78;3.40;;;31.60;96.70;;;;;;4870363;29;20053;-77
2022/07/18 08:28:12;;;;;;;4.10;3.70;;;31.50;96.70;;;;;;4886952;29;20073;-79
2022/07/18 08:30:41;;;;;;;4.70;3.25;;;31.60;96.70;;;;;;4870560;29;20718;-79
2022/07/18 08:33:09;;;;;;;4.30;3.15;;;31.70;96.70;;;;;;4874023;29;20516;-80
2022/07/18 08:35:38;;;;;;;7.55;2.75;;;31.90;96.70;;;;;;4870893;29;20116;-80
2022/07/18 08:38:07;;;;;;;6.45;3.40;;;32.00;96.70;;;;;;4870177;29;20500;-80
2022/07/18 08:40:37;;;;;;;5.15;3.13;;;32.10;96.50;;;;;;4870380;29;20093;-81
2022/07/18 08:43:07;;;;;;;6.05;3.03;;;32.30;96.50;;;;;;4869691;29;20057;-80
2022/07/18 08:45:51;;;;;;;3.47;3.13;;;32.40;95.80;;;;;;4870816;29;20064;-81
2022/07/18 08:48:19;;;;;;;4.30;3.28;;;32.60;95.50;;;;;;4869005;29;20389;-80
2022/07/18 08:50:49;;;;;;;3.42;3.13;;;32.60;95.20;;;;;;4866992;29;20053;-79
2022/07/18 08:53:18;;;;;;;3.55;3.13;;;32.70;95.70;;;;;;4865348;29;20108;-79
2022/07/18 08:55:48;;;;;;;5.32;3.53;;;32.70;94.70;;;;;;4871446;29;20049;-79
2022/07/18 08:58:18;;;;;;;4.05;3.65;;;32.70;93.90;;;;;;4871056;29;20061;-80
2022/07/18 09:01:07;;;;;;;4.13;3.13;;;32.80;94.00;;;;;;4883010;29;20053;-78
2022/07/18 09:03:36;;;;;;;4.57;3.47;;;32.60;94.30;;;;;;4868776;29;20080;-79
2022/07/18 09:06:06;;;;;;;5.53;3.45;;;32.60;94.40;;;;;;4869032;29;20079;-80
2022/07/18 09:08:35;;;;;;;5.22;3.30;;;32.70;94.10;;;;;;4870364;29;20116;-81
2022/07/18 09:11:08;;;;;;;5.38;3.45;;;32.90;93.70;;;;;;4868612;29;20052;-79
2022/07/18 09:13:58;;;;;;;5.55;2.97;;;33.00;93.00;;;;;;4867743;29;20083;-80
2022/07/18 09:16:27;;;;;;;5.28;3.40;;;33.20;92.50;;;;;;4871173;29;20053;-79
2022/07/18 09:18:56;;;;;;;3.72;3.13;;;33.20;93.00;;;;;;4870286;29;20491;-78
2022/07/18 09:21:24;;;;;;;5.18;3.40;;;33.30;92.70;;;;;;4873597;29;20128;-78
2022/07/18 09:24:00;;;;;;;4.25;3.20;;;33.40;92.70;;;;;;4870613;29;20555;-79
2022/07/18 09:26:38;;;;;;;4.15;3.10;;;33.20;92.00;;;;;;4856985;29;20821;-79
2022/07/18 09:29:09;;;;;;;4.03;3.15;;;33.10;92.00;;;;;;4869196;29;20053;-78
2022/07/18 09:31:55;;;;;;;4.03;2.60;;;33.20;91.70;;;;;;4858972;29;20045;-78
2022/07/18 09:34:34;;;;;;;3.80;3.13;;;33.20;91.20;;;;;;4868731;29;20128;-78
2022/07/18 09:37:03;;;;;;;3.58;3.25;;;33.30;91.20;;;;;;4871135;29;20048;-78
2022/07/18 09:39:33;;;;;;;3.38;3.08;;;33.30;91.00;;;;;;4872870;29;20045;-79
2022/07/18 09:42:14;;;;;;;2.92;2.72;;;33.50;90.70;;;;;;4854736;29;20072;-78
2022/07/18 09:44:56;;;;;;;5.18;2.83;;;33.80;90.10;;;;;;4851614;29;20044;-78
2022/07/18 09:47:24;;;;;;;6.93;3.10;;;33.80;89.90;;;;;;4870894;29;20069;-77
2022/07/18 09:49:52;;;;;;;3.00;2.70;;;33.70;90.10;;;;;;4872860;29;20588;-78
2022/07/18 09:52:21;;;;;;;3.50;3.20;;;33.60;90.40;;;;;;4870639;29;20109;-78
2022/07/18 09:54:49;;;;;;;3.85;2.90;;;33.70;90.20;;;;;;4873000;29;20053;-78
2022/07/18 09:57:24;;;;;;;3.95;3.05;;;33.80;90.20;;;;;;4870661;29;20621;-77
2022/07/18 09:59:55;;;;;;;3.83;3.50;;;33.90;89.40;;;;;;4872884;29;20040;-78
2022/07/18 10:02:23;;;;;;;4.40;2.78;;;34.10;89.00;;;;;;4875181;29;20119;-78
2022/07/18 10:04:52;;;;;;;3.75;2.75;;;34.00;88.40;;;;;;4875671;29;20045;-79
2022/07/18 10:07:20;;;;;;;3.20;3.00;;;34.20;88.60;;;;;;4886797;29;20396;-79
2022/07/18 10:09:49;;;;;;;3.97;2.97;;;34.10;88.70;;;;;;4872569;29;20415;-79
2022/07/18 10:12:18;;;;;;;8.55;3.25;;;34.30;88.30;;;;;;4872995;29;20049;-78
2022/07/18 10:14:46;;;;;;;3.85;3.05;;;34.60;87.10;;;;;;4872697;29;20048;-79
2022/07/18 10:17:17;;;;;;;4.47;3.00;;;34.70;87.30;;;;;;4870164;29;20060;-77
2022/07/18 10:19:46;;;;;;;3.80;2.70;;;34.80;87.10;;;;;;4873274;29;20132;-79
2022/07/18 10:22:14;;;;;;;3.42;3.00;;;35.00;85.90;;;;;;4872178;29;20056;-79
2022/07/18 10:24:44;;;;;;;3.47;3.10;;;35.00;86.00;;;;;;4856957;29;20049;-79
2022/07/18 10:27:18;;;;;;;4.82;2.83;;;35.10;86.30;;;;;;4872748;29;20056;-79
2022/07/18 10:30:19;;;;;;;6.93;2.78;;;34.80;86.40;;;;;;4870824;29;20052;-78
2022/07/18 10:32:48;;;;;;;3.45;3.15;;;35.00;85.70;;;;;;4811629;29;20172;-78
2022/07/18 10:35:17;;;;;;;4.78;2.63;;;35.20;86.10;;;;;;4797670;29;20698;-80
2022/07/18 10:37:45;;;;;;;2.67;2.50;;;35.30;85.30;;;;;;4818025;29;20057;-79
2022/07/18 10:40:27;;;;;;;7.28;3.17;;;35.40;84.50;;;;;;4804051;29;20050;-81
2022/07/18 10:43:36;;;;;;;3.58;2.67;;;35.50;84.00;;;;;;4800523;29;20082;-82
2022/07/18 10:46:06;;;;;;;3.28;2.95;;;35.50;84.40;;;;;;4778283;29;20063;-83
2022/07/18 10:48:57;;;;;;;6.03;3.17;;;35.50;84.00;;;;;;4799334;29;20066;-78
2022/07/18 10:51:30;;;;;;;3.28;2.65;;;35.50;84.10;;;;;;4817460;29;20088;-81
2022/07/18 10:54:09;;;;;;;3.58;2.95;;;35.70;83.20;;;;;;4814485;29;20050;-80
2022/07/18 10:57:08;;;;;;;3.15;2.85;;;35.90;83.20;;;;;;4813834;29;20050;-82
2022/07/18 10:59:54;;;;;;;2.88;2.28;;;35.80;82.60;;;;;;4813722;29;20069;-82
2022/07/18 11:02:34;;;;;;;3.58;2.78;;;35.70;82.50;;;;;;4813136;29;20058;-81
2022/07/18 11:05:34;;;;;;;3.45;3.15;;;35.40;82.40;;;;;;4802412;29;20054;-79
2022/07/18 11:08:20;;;;;;;6.07;2.67;;;35.50;83.20;;;;;;4868266;29;20064;-80
2022/07/18 11:11:12;;;;;;;2.90;2.55;;;35.90;82.10;;;;;;4885207;29;20053;-79
2022/07/18 11:13:48;;;;;;;5.95;2.85;;;36.10;81.90;;;;;;4868231;29;20100;-79
2022/07/18 11:16:20;;;;;;;3.13;2.83;;;36.40;82.40;;;;;;4871002;29;20648;-82
2022/07/18 11:19:17;;;;;;;4.07;2.80;;;36.70;80.20;;;;;;4869578;29;20450;-84
2022/07/18 11:21:57;;;;;;;5.38;2.63;;;36.60;80.20;;;;;;4884347;29;20055;-80
2022/07/18 11:24:27;;;;;;;3.45;2.63;;;36.50;80.30;;;;;;4880200;29;20508;-80
2022/07/18 11:26:57;;;;;;;3.05;2.70;;;36.80;80.50;;;;;;4855171;29;20081;-79
2022/07/18 11:29:26;;;;;;;3.22;3.00;;;37.00;79.90;;;;;;4868756;29;20416;-78
2022/07/18 11:31:57;;;;;;;3.92;2.90;;;36.90;79.30;;;;;;4868912;29;20195;-77
2022/07/18 11:34:26;;;;;;;3.08;2.75;;;36.40;79.10;;;;;;4864075;29;20048;-75
2022/07/18 11:37:13;;;;;;;6.75;3.03;;;36.40;79.70;;;;;;4871049;29;20055;-76
2022/07/18 11:39:41;;;;;;;3.10;2.50;;;36.20;79.80;;;;;;4873017;29;20049;-76
2022/07/18 11:42:12;;;;;;;4.47;2.95;;;36.20;79.70;;;;;;4868880;29;20041;-77
2022/07/18 11:44:41;;;;;;;3.75;2.80;;;36.20;79.80;;;;;;4867416;29;20152;-76
2022/07/18 11:47:12;;;;;;;3.03;2.83;;;36.50;79.40;;;;;;4869244;29;20148;-77
2022/07/18 11:49:40;;;;;;;3.35;2.60;;;36.70;79.70;;;;;;4870041;29;20069;-77
2022/07/18 11:52:10;;;;;;;4.55;2.65;;;36.80;79.30;;;;;;4867306;29;20054;-76
2022/07/18 11:54:38;;;;;;;3.30;2.90;;;37.00;78.10;;;;;;4887166;29;20097;-79
2022/07/18 11:57:07;;;;;;;3.88;2.70;;;37.20;77.50;;;;;;4857910;29;20056;-78
2022/07/18 11:59:36;;;;;;;3.78;3.03;;;37.30;78.20;;;;;;4870853;29;20109;-79
2022/07/18 12:02:05;;;;;;;3.20;2.88;;;37.20;78.20;;;;;;4869179;29;20689;-79
2022/07/18 12:04:33;;;;;;;2.90;2.58;;;37.30;78.50;;;;;;4868778;29;20045;-81
2022/07/18 12:07:24;;;;;;;4.88;2.75;;;37.30;77.50;;;;;;4869744;29;20526;-81
2022/07/18 12:09:53;;;;;;;3.28;2.70;;;37.40;77.40;;;;;;4867838;29;20053;-78
2022/07/18 12:12:22;;;;;;;2.90;2.70;;;37.60;77.60;;;;;;4869474;29;20049;-79
2022/07/18 12:14:59;;;;;;;4.47;2.88;;;37.60;75.90;;;;;;4869206;29;20165;-81
2022/07/18 12:17:28;;;;;;;2.92;2.65;;;37.70;76.60;;;;;;4883241;29;20060;-79
2022/07/18 12:20:10;;;;;;;2.55;2.35;;;37.50;77.20;;;;;;4868950;29;20453;-81
2022/07/18 12:23:10;;;;;;;3.45;2.75;;;37.70;77.10;;;;;;4866141;29;20379;-80
2022/07/18 12:25:39;;;;;;;4.07;2.65;;;37.90;76.60;;;;;;4869083;29;20065;-80
2022/07/18 12:28:15;;;;;;;3.88;2.80;;;38.10;76.70;;;;;;4883794;29;20164;-80
2022/07/18 12:30:44;;;;;;;3.35;2.88;;;38.30;76.60;;;;;;4873419;29;20441;-81
2022/07/18 12:33:14;;;;;;;3.60;2.55;;;38.30;76.60;;;;;;4867286;29;20149;-81
2022/07/18 12:35:42;;;;;;;3.22;2.70;;;38.50;75.90;;;;;;4884907;29;20041;-81
2022/07/18 12:38:13;;;;;;;3.20;2.58;;;38.50;75.90;;;;;;4862441;29;20046;-81
2022/07/18 12:40:45;;;;;;;10.20;3.53;;;38.50;76.00;;;;;;4864326;29;20097;-81
2022/07/18 12:43:15;;;;;;;5.28;2.65;;;38.70;75.60;;;;;;4871516;29;20044;-81
2022/07/18 12:45:45;;;;;;;2.75;2.55;;;38.80;75.30;;;;;;4869937;29;20049;-81
2022/07/18 12:48:14;;;;;;;3.15;2.78;;;38.90;75.10;;;;;;4854406;29;20049;-81
2022/07/18 12:50:44;;;;;;;2.78;2.58;;;39.00;74.60;;;;;;4870263;29;20057;-81
2022/07/18 12:53:14;;;;;;;2.83;2.63;;;39.00;74.30;;;;;;4870952;29;20053;-81
2022/07/18 12:55:42;;;;;;;3.50;2.72;;;39.00;74.60;;;;;;4873263;29;20504;-81
2022/07/18 12:58:10;;;;;;;3.35;2.95;;;38.80;74.60;;;;;;4873736;29;20468;-80
2022/07/18 13:00:38;;;;;;;2.92;2.72;;;38.90;74.60;;;;;;4873194;29;20456;-81
2022/07/18 13:03:06;;;;;;;2.92;2.60;;;39.00;74.20;;;;;;4889011;29;20051;-81
2022/07/18 13:05:34;;;;;;;2.67;2.47;;;39.10;74.30;;;;;;4872991;29;20053;-82